Time;durP1;ratioP1;P1;durP2;ratioP2;P2;SDS_P1;SDS_P2;PMS_P1;PMS_P2;Temp;Humidity;BMP_temperature;BMP_pressure;BME280_temperature;BME280_humidity;BME280_pressure;Samples;Min_cycle;Max_cycle;Signal;HPM_P1;HPM_P2
2022/12/11 00:01:27;;;;;;;1999.90;999.90;;;-0.50;99.90;;;;;;5010681;28;20121;-67
2022/12/11 00:03:52;;;;;;;1999.90;999.90;;;-0.50;99.90;;;;;;5027254;28;20531;-67
2022/12/11 00:06:21;;;;;;;1999.90;999.90;;;-0.40;99.90;;;;;;5027335;28;20382;-67
2022/12/11 00:08:51;;;;;;;1999.90;999.90;;;-0.40;99.90;;;;;;5023434;28;20526;-67
2022/12/11 00:11:16;;;;;;;1999.90;999.90;;;-0.40;99.90;;;;;;5023830;28;20071;-67
2022/12/11 00:13:42;;;;;;;1999.90;999.90;;;-0.40;99.90;;;;;;5024316;28;20126;-67
2022/12/11 00:16:08;;;;;;;1999.90;999.90;;;-0.30;99.90;;;;;;5026294;28;20052;-67
2022/12/11 00:18:34;;;;;;;1999.90;999.90;;;-0.30;99.90;;;;;;5007116;28;20037;-67
2022/12/11 00:21:01;;;;;;;1999.90;999.90;;;-0.30;99.90;;;;;;5023824;28;20040;-67
2022/12/11 00:23:27;;;;;;;1999.90;999.90;;;-0.30;99.90;;;;;;5024729;28;20098;-67
2022/12/11 00:25:53;;;;;;;1999.90;999.90;;;-0.20;99.90;;;;;;5008270;28;20056;-67
2022/12/11 00:28:19;;;;;;;1999.90;999.90;;;-0.30;99.90;;;;;;5022885;28;20406;-67
2022/12/11 00:30:45;;;;;;;1999.90;999.90;;;-0.30;99.90;;;;;;5022678;28;20087;-67
2022/12/11 00:33:12;;;;;;;1999.90;999.90;;;-0.20;99.90;;;;;;5018261;28;20052;-67
2022/12/11 00:35:44;;;;;;;1999.90;999.90;;;-0.20;99.90;;;;;;5022408;28;20074;-67
2022/12/11 00:38:15;;;;;;;1999.90;999.90;;;-0.20;99.90;;;;;;5019664;28;20044;-67
2022/12/11 00:40:40;;;;;;;1999.90;999.90;;;-0.30;99.90;;;;;;5004639;28;20037;-67
2022/12/11 00:43:06;;;;;;;1999.90;999.90;;;-0.20;99.90;;;;;;5025050;28;20503;-67
2022/12/11 00:45:35;;;;;;;1999.90;999.90;;;-0.20;99.90;;;;;;5014509;28;20037;-67
2022/12/11 00:48:01;;;;;;;1999.90;999.90;;;-0.20;99.90;;;;;;5008203;28;20437;-67
2022/12/11 00:50:27;;;;;;;1999.90;999.90;;;-0.20;99.90;;;;;;5024215;28;20051;-67
2022/12/11 00:52:52;;;;;;;1999.90;999.90;;;-0.20;99.90;;;;;;5025205;28;20421;-67
2022/12/11 00:55:18;;;;;;;1999.90;999.90;;;-0.20;99.90;;;;;;5009892;28;20040;-67
2022/12/11 00:57:43;;;;;;;1999.90;999.90;;;-0.10;99.90;;;;;;5042292;28;20487;-67
2022/12/11 01:00:10;;;;;;;1999.90;999.90;;;-0.20;99.90;;;;;;5025552;28;20095;-67
2022/12/11 01:02:36;;;;;;;1999.90;999.90;;;-0.10;99.90;;;;;;5034151;28;20403;-67
2022/12/11 01:05:02;;;;;;;1999.90;999.90;;;-0.10;99.90;;;;;;5029211;28;20040;-67
2022/12/11 01:07:28;;;;;;;1999.90;999.90;;;-0.10;99.90;;;;;;5045829;28;20041;-67
2022/12/11 01:12:37;;;;;;;1999.90;999.90;;;-0.10;99.90;;;;;;5044087;28;20056;-67
2022/12/11 01:15:03;;;;;;;1999.90;999.90;;;-0.10;99.90;;;;;;5045397;28;20047;-67
2022/12/11 01:17:28;;;;;;;1999.90;999.90;;;-0.10;99.90;;;;;;5049890;28;20491;-67
2022/12/11 01:19:54;;;;;;;1999.90;999.90;;;-0.10;99.90;;;;;;5049007;28;20080;-67
2022/12/11 01:22:20;;;;;;;1999.90;999.90;;;-0.10;99.90;;;;;;5049264;28;20039;-67
2022/12/11 01:24:46;;;;;;;1999.90;999.90;;;-0.10;99.90;;;;;;5066678;28;20055;-67
2022/12/11 01:27:11;;;;;;;1999.90;999.90;;;0.00;99.90;;;;;;5050282;28;20044;-67
2022/12/11 01:29:37;;;;;;;1999.90;999.90;;;-0.10;99.90;;;;;;5032394;28;20032;-67
2022/12/11 01:32:03;;;;;;;1999.90;999.90;;;0.00;99.90;;;;;;5049000;28;20040;-67
2022/12/11 01:34:30;;;;;;;1999.90;999.90;;;-0.10;99.90;;;;;;5029742;28;20067;-67
2022/12/11 01:36:55;;;;;;;1999.90;999.90;;;-0.10;99.90;;;;;;5045329;28;21400;-68
2022/12/11 01:39:21;;;;;;;1999.90;999.90;;;0.00;99.90;;;;;;5046590;28;20059;-67
2022/12/11 01:41:47;;;;;;;1999.90;999.90;;;-0.10;99.90;;;;;;5049517;28;20033;-67
2022/12/11 01:44:15;;;;;;;1999.90;999.90;;;0.00;99.90;;;;;;5048243;28;20147;-67
2022/12/11 01:46:42;;;;;;;1999.90;999.90;;;0.00;99.90;;;;;;5049102;28;20056;-67
2022/12/11 01:49:12;;;;;;;1999.90;999.90;;;0.00;99.90;;;;;;5046802;28;20079;-67
2022/12/11 01:51:47;;;;;;;1999.90;999.90;;;0.00;99.90;;;;;;5046683;28;20413;-67
2022/12/11 01:54:15;;;;;;;1999.90;999.90;;;0.00;99.90;;;;;;5045342;28;20107;-67
2022/12/11 01:56:43;;;;;;;1999.90;999.90;;;0.00;99.90;;;;;;5031952;28;20044;-67
2022/12/11 01:59:12;;;;;;;1999.90;999.90;;;0.00;99.90;;;;;;5033055;28;20036;-67
2022/12/11 02:01:50;;;;;;;1999.90;999.90;;;0.10;99.90;;;;;;5047275;28;20056;-67
2022/12/11 02:04:17;;;;;;;1999.90;999.90;;;0.10;99.90;;;;;;5077272;28;20076;-67
2022/12/11 02:06:48;;;;;;;1999.90;999.90;;;0.10;99.90;;;;;;5049518;28;20119;-67
2022/12/11 02:09:17;;;;;;;1999.90;999.90;;;0.10;99.90;;;;;;5026566;28;20087;-67
2022/12/11 02:12:08;;;;;;;1999.90;999.90;;;0.10;99.90;;;;;;5031855;28;20097;-67
2022/12/11 02:14:52;;;;;;;1999.90;999.90;;;0.20;99.90;;;;;;5047413;28;20071;-67
2022/12/11 02:17:24;;;;;;;1999.90;999.90;;;0.20;99.90;;;;;;5043892;28;20164;-67
2022/12/11 02:19:59;;;;;;;1999.90;999.90;;;0.20;99.90;;;;;;5046633;28;20517;-67
2022/12/11 02:22:34;;;;;;;1999.90;999.90;;;0.20;99.90;;;;;;5046955;28;20045;-67
2022/12/11 02:25:24;;;;;;;1999.90;999.90;;;0.20;99.90;;;;;;5065497;28;20376;-67
2022/12/11 02:28:02;;;;;;;1999.90;999.90;;;0.20;99.90;;;;;;5051042;28;20060;-67
2022/12/11 02:30:28;;;;;;;1999.90;999.90;;;0.20;99.90;;;;;;5045596;28;20057;-67
2022/12/11 02:32:56;;;;;;;1999.90;999.90;;;0.20;99.90;;;;;;5044920;28;20066;-67
2022/12/11 02:35:33;;;;;;;1999.90;999.90;;;0.30;99.90;;;;;;5025379;28;20048;-67
2022/12/11 02:38:06;;;;;;;1999.90;999.90;;;0.20;99.90;;;;;;5031588;28;20269;-67
2022/12/11 02:40:35;;;;;;;1999.90;999.90;;;0.30;99.90;;;;;;5047169;28;20060;-67
2022/12/11 02:43:05;;;;;;;1999.90;999.90;;;0.30;99.90;;;;;;5028565;28;20094;-67
2022/12/11 02:45:32;;;;;;;1999.90;999.90;;;0.30;99.90;;;;;;5045224;28;20041;-67
2022/12/11 02:48:01;;;;;;;1999.90;999.90;;;0.30;99.90;;;;;;5045202;28;20040;-67
2022/12/11 02:50:28;;;;;;;1999.90;999.90;;;0.30;99.90;;;;;;5045205;28;20514;-67
2022/12/11 02:52:56;;;;;;;1999.90;999.90;;;0.30;99.90;;;;;;5044375;28;20119;-67
2022/12/11 02:55:23;;;;;;;1999.90;999.90;;;0.30;99.90;;;;;;5044961;28;20044;-67
2022/12/11 02:57:58;;;;;;;1999.90;999.90;;;0.30;99.90;;;;;;5043751;28;20053;-67
2022/12/11 03:00:24;;;;;;;1999.90;999.90;;;0.30;99.90;;;;;;5045531;28;20082;-67
2022/12/11 03:02:49;;;;;;;1999.90;999.90;;;0.40;99.90;;;;;;5044336;28;20494;-67
2022/12/11 03:05:15;;;;;;;1999.90;999.90;;;0.40;99.90;;;;;;5044809;28;20159;-67
2022/12/11 03:07:42;;;;;;;1999.90;999.90;;;0.30;99.90;;;;;;5043280;28;20036;-67
2022/12/11 03:10:13;;;;;;;1999.90;999.90;;;0.30;99.90;;;;;;5042689;28;20063;-67
2022/12/11 03:12:42;;;;;;;1999.90;999.90;;;0.40;99.90;;;;;;5029657;28;20037;-67
2022/12/11 03:15:12;;;;;;;1999.90;999.90;;;0.40;99.90;;;;;;5026668;28;20111;-67
2022/12/11 03:18:04;;;;;;;1999.90;999.90;;;0.40;99.90;;;;;;5028262;28;20445;-67
2022/12/11 03:21:08;;;;;;;1999.90;999.90;;;0.40;99.90;;;;;;5042969;28;20502;-67
2022/12/11 03:23:41;;;;;;;1999.90;999.90;;;0.40;99.90;;;;;;4966718;28;20085;-67
2022/12/11 03:26:11;;;;;;;;;;;0.40;99.90;;;;;;5038450;28;20052;-67
2022/12/11 03:28:49;;;;;;;1999.90;999.90;;;0.40;99.90;;;;;;5043970;28;19927;-67
2022/12/11 03:31:23;;;;;;;1999.90;999.90;;;0.40;99.90;;;;;;5077325;28;20498;-67
2022/12/11 03:33:53;;;;;;;1999.90;999.90;;;0.40;99.90;;;;;;5042036;28;20494;-67
2022/12/11 03:36:24;;;;;;;1999.90;999.90;;;0.40;99.90;;;;;;5043136;28;20044;-67
2022/12/11 03:38:57;;;;;;;1999.90;999.90;;;0.40;99.90;;;;;;5045195;28;20068;-67
2022/12/11 03:41:25;;;;;;;1999.90;999.90;;;0.40;99.90;;;;;;5029035;28;20399;-67
2022/12/11 03:43:55;;;;;;;1999.90;999.90;;;0.40;99.90;;;;;;5027869;28;20051;-67
2022/12/11 03:46:24;;;;;;;1999.90;999.90;;;0.40;99.90;;;;;;5046004;28;20040;-67
2022/12/11 03:48:52;;;;;;;1999.90;999.90;;;0.40;99.90;;;;;;5043516;28;20040;-67
2022/12/11 03:51:18;;;;;;;1999.90;999.90;;;0.40;99.90;;;;;;5045700;28;20041;-67
2022/12/11 03:53:45;;;;;;;1999.90;999.90;;;0.40;99.90;;;;;;5044151;28;20070;-67
2022/12/11 03:56:13;;;;;;;1999.90;999.90;;;0.50;99.90;;;;;;5027728;28;20269;-67
2022/12/11 03:58:39;;;;;;;1999.90;999.90;;;0.40;99.90;;;;;;5044563;28;20063;-67
2022/12/11 04:01:08;;;;;;;1999.90;999.90;;;0.40;99.90;;;;;;5043765;28;20124;-67
2022/12/11 04:03:34;;;;;;;1999.90;999.90;;;0.50;99.90;;;;;;5074797;28;20052;-67
2022/12/11 04:05:59;;;;;;;1999.90;999.90;;;0.40;99.90;;;;;;5041771;28;20087;-67
2022/12/11 04:08:25;;;;;;;1999.90;999.90;;;0.40;99.90;;;;;;5035789;28;20514;-67
2022/12/11 04:11:33;;;;;;;1999.90;999.90;;;0.50;99.90;;;;;;5020583;28;20062;-67
2022/12/11 04:13:37;;;;;;;1999.90;999.90;;;0.50;99.90;;;;;;5037905;28;20139;-67
2022/12/11 04:16:03;;;;;;;1999.90;999.90;;;0.50;99.90;;;;;;5042284;28;20495;-67
2022/12/11 04:24:15;;;;;;;1999.90;999.90;;;0.50;99.90;;;;;;5034114;28;20037;-67
2022/12/11 04:26:45;;;;;;;1999.90;999.90;;;0.50;99.90;;;;;;5032338;28;20076;-67
2022/12/11 04:29:12;;;;;;;1999.90;999.90;;;0.50;99.90;;;;;;5034686;28;20460;-67
2022/12/11 04:31:37;;;;;;;1999.90;999.90;;;0.50;99.90;;;;;;5041264;28;20072;-67
2022/12/11 04:34:03;;;;;;;1999.90;999.90;;;0.60;99.90;;;;;;5029762;28;20127;-67
2022/12/11 04:36:29;;;;;;;1999.90;999.90;;;0.50;99.90;;;;;;5023989;28;20044;-67
2022/12/11 04:38:54;;;;;;;1999.90;999.90;;;0.50;99.90;;;;;;5035651;28;20486;-67
2022/12/11 04:41:20;;;;;;;1999.90;999.90;;;0.60;99.90;;;;;;5038565;28;20193;-67
2022/12/11 04:43:45;;;;;;;1999.90;999.90;;;0.60;99.90;;;;;;5024408;28;20514;-67
2022/12/11 04:46:17;;;;;;;1999.90;999.90;;;0.60;99.90;;;;;;5028314;28;20062;-67
2022/12/11 04:48:44;;;;;;;1999.90;999.90;;;0.50;99.90;;;;;;5046260;28;20051;-67
2022/12/11 04:51:10;;;;;;;1999.90;999.90;;;0.60;99.90;;;;;;5026532;28;20048;-67
2022/12/11 04:53:36;;;;;;;1999.90;999.90;;;0.60;99.90;;;;;;5075223;28;20055;-67
2022/12/11 04:56:07;;;;;;;1999.90;999.90;;;0.60;99.90;;;;;;5035153;28;20127;-67
2022/12/11 04:58:36;;;;;;;1999.90;999.90;;;0.60;99.90;;;;;;5021109;28;20037;-67
2022/12/11 05:01:14;;;;;;;1999.90;999.90;;;0.60;99.90;;;;;;5038746;28;20051;-67
2022/12/11 05:03:41;;;;;;;1999.90;999.90;;;0.60;99.90;;;;;;5045566;28;20501;-67
2022/12/11 05:06:08;;;;;;;1999.90;999.90;;;0.60;99.90;;;;;;5032870;28;20090;-67
2022/12/11 05:08:35;;;;;;;1999.90;999.90;;;0.60;99.90;;;;;;5065115;28;20068;-67
2022/12/11 05:11:03;;;;;;;1999.90;999.90;;;0.60;99.90;;;;;;5047442;28;20398;-67
2022/12/11 05:13:29;;;;;;;1999.90;999.90;;;0.60;99.90;;;;;;5045465;28;20115;-67
2022/12/11 05:15:56;;;;;;;1999.90;999.90;;;0.60;99.90;;;;;;5049295;28;20509;-67
2022/12/11 05:18:22;;;;;;;1999.90;999.90;;;0.60;99.90;;;;;;5027934;28;20140;-67
2022/12/11 05:20:59;;;;;;;1999.90;999.90;;;0.60;99.90;;;;;;5050120;28;20039;-67
2022/12/11 05:23:25;;;;;;;1999.90;999.90;;;0.60;99.90;;;;;;5029227;28;20040;-67
2022/12/11 05:25:53;;;;;;;1999.90;999.90;;;0.60;99.90;;;;;;5049046;28;20048;-67
2022/12/11 05:28:19;;;;;;;1999.90;999.90;;;0.60;99.90;;;;;;5044432;28;20059;-67
2022/12/11 05:30:45;;;;;;;1999.90;999.90;;;0.60;99.90;;;;;;5068108;28;20401;-67
2022/12/11 05:33:11;;;;;;;1999.90;999.90;;;0.60;99.90;;;;;;5049786;28;20044;-67
2022/12/11 05:35:36;;;;;;;1999.90;999.90;;;0.60;99.90;;;;;;5066600;28;21192;-67
2022/12/11 05:38:02;;;;;;;1999.90;999.90;;;0.60;99.90;;;;;;5049630;28;20036;-67
2022/12/11 05:40:27;;;;;;;1999.90;999.90;;;0.60;99.90;;;;;;5045271;28;20047;-67
2022/12/11 05:42:53;;;;;;;1999.90;999.90;;;0.60;99.90;;;;;;5030261;28;20119;-67
2022/12/11 05:45:18;;;;;;;1999.90;999.90;;;0.60;99.90;;;;;;5030301;28;20048;-67
2022/12/11 05:47:44;;;;;;;1999.90;999.90;;;0.70;99.90;;;;;;5049232;28;20445;-67
2022/12/11 05:50:10;;;;;;;1999.90;999.90;;;0.60;99.90;;;;;;5049195;28;20103;-67
2022/12/11 05:52:35;;;;;;;1999.90;999.90;;;0.70;99.90;;;;;;5046037;28;20036;-67
2022/12/11 05:55:01;;;;;;;1999.90;999.90;;;0.60;99.90;;;;;;5047525;28;20065;-67
2022/12/11 05:57:26;;;;;;;1999.90;999.90;;;0.70;99.90;;;;;;5064810;28;20040;-67
2022/12/11 05:59:52;;;;;;;1999.90;999.90;;;0.60;99.90;;;;;;5046339;28;20036;-67
2022/12/11 06:02:18;;;;;;;1999.90;999.90;;;0.70;99.90;;;;;;5048358;28;20049;-67
2022/12/11 06:04:43;;;;;;;1999.90;999.90;;;0.60;99.90;;;;;;5063417;28;20086;-67
2022/12/11 06:07:09;;;;;;;1999.90;999.90;;;0.70;99.90;;;;;;5032858;28;20048;-67
2022/12/11 06:09:34;;;;;;;1999.90;999.90;;;0.60;99.90;;;;;;5046395;28;20047;-67
2022/12/11 06:12:00;;;;;;;1999.90;999.90;;;0.70;99.90;;;;;;5038694;28;20516;-67
2022/12/11 06:14:26;;;;;;;1999.90;999.90;;;0.60;99.90;;;;;;5026219;28;20090;-67
2022/12/11 06:16:51;;;;;;;1999.90;999.90;;;0.70;99.90;;;;;;5041054;28;20096;-67
2022/12/11 06:19:17;;;;;;;1999.90;999.90;;;0.60;99.90;;;;;;5032276;28;20512;-67
2022/12/11 06:21:44;;;;;;;1999.90;999.90;;;0.70;99.90;;;;;;5028691;28;20075;-67
2022/12/11 06:24:10;;;;;;;1999.90;999.90;;;0.70;99.90;;;;;;5046291;28;20434;-67
2022/12/11 06:26:36;;;;;;;1999.90;999.90;;;0.70;99.90;;;;;;5047102;28;20036;-67
2022/12/11 06:29:02;;;;;;;1999.90;999.90;;;0.70;99.90;;;;;;5046592;28;20490;-67
2022/12/11 06:31:27;;;;;;;1999.90;999.90;;;0.70;99.90;;;;;;5060031;28;20040;-67
2022/12/11 06:33:53;;;;;;;1999.90;999.90;;;0.70;99.90;;;;;;5043202;28;20075;-67
2022/12/11 06:36:21;;;;;;;1999.90;999.90;;;0.60;99.90;;;;;;5038717;28;20124;-67
2022/12/11 06:38:47;;;;;;;1999.90;999.90;;;0.60;99.90;;;;;;5029821;28;20047;-67
2022/12/11 06:41:13;;;;;;;1999.90;999.90;;;0.60;99.90;;;;;;5045216;28;20568;-67
2022/12/11 06:43:41;;;;;;;1999.90;999.90;;;0.70;99.90;;;;;;5031325;28;20071;-67
2022/12/11 06:46:10;;;;;;;1999.90;999.90;;;0.70;99.90;;;;;;5045026;28;20100;-67
2022/12/11 06:48:36;;;;;;;1999.90;999.90;;;0.70;99.90;;;;;;5041413;28;20098;-67
2022/12/11 06:51:06;;;;;;;1999.90;999.90;;;0.70;99.90;;;;;;5045498;28;20063;-67
2022/12/11 06:53:32;;;;;;;1999.90;999.90;;;0.60;99.90;;;;;;5024191;28;20083;-67
2022/12/11 06:56:04;;;;;;;1999.90;999.90;;;0.60;99.90;;;;;;5048444;28;20486;-67
2022/12/11 06:58:30;;;;;;;;;;;0.70;99.90;;;;;;5046791;28;20040;-67
2022/12/11 07:00:56;;;;;;;1999.90;999.90;;;0.70;99.90;;;;;;5045668;28;19916;-67
2022/12/11 07:03:22;;;;;;;1999.90;999.90;;;0.70;99.90;;;;;;5045027;28;20048;-67
2022/12/11 07:05:47;;;;;;;1999.90;999.90;;;0.70;99.90;;;;;;5029846;28;20051;-67
2022/12/11 07:08:13;;;;;;;1999.90;999.90;;;0.70;99.90;;;;;;5030841;28;20052;-67
2022/12/11 07:10:39;;;;;;;1999.90;999.90;;;0.60;99.90;;;;;;5047587;28;20442;-67
2022/12/11 07:13:04;;;;;;;1999.90;999.90;;;0.70;99.90;;;;;;5047028;28;20067;-67
2022/12/11 07:15:30;;;;;;;1999.90;999.90;;;0.70;99.90;;;;;;5025472;28;20051;-67
2022/12/11 07:17:55;;;;;;;1999.90;999.90;;;0.70;99.90;;;;;;5029068;28;20119;-67
2022/12/11 07:20:21;;;;;;;1999.90;999.90;;;0.70;99.90;;;;;;5062443;28;20037;-67
2022/12/11 07:22:47;;;;;;;1999.90;999.90;;;0.70;99.90;;;;;;5040059;28;20040;-67
2022/12/11 07:25:13;;;;;;;1999.90;999.90;;;0.70;99.90;;;;;;5025873;28;20453;-67
2022/12/11 07:27:39;;;;;;;1999.90;999.90;;;0.70;99.90;;;;;;5044297;28;20037;-67
2022/12/11 07:30:05;;;;;;;1999.90;999.90;;;0.70;99.90;;;;;;5043464;28;20410;-67
2022/12/11 07:32:30;;;;;;;1999.90;999.90;;;0.70;99.90;;;;;;5046807;28;20040;-67
2022/12/11 07:34:56;;;;;;;1999.90;999.90;;;0.70;99.90;;;;;;5028435;28;20103;-67
2022/12/11 07:37:22;;;;;;;1999.90;999.90;;;0.70;99.90;;;;;;5047216;28;20440;-67
2022/12/11 07:39:47;;;;;;;1999.90;999.90;;;0.70;99.90;;;;;;5028486;28;20056;-67
2022/12/11 07:42:13;;;;;;;1999.90;999.90;;;0.70;99.90;;;;;;5029541;28;20040;-67
2022/12/11 07:44:39;;;;;;;1999.90;999.90;;;0.70;99.90;;;;;;5062717;28;20493;-67
2022/12/11 07:47:04;;;;;;;1999.90;999.90;;;0.70;99.90;;;;;;5045989;28;20040;-67
2022/12/11 07:49:30;;;;;;;1999.90;999.90;;;0.70;99.90;;;;;;5028856;28;20055;-67
2022/12/11 07:51:55;;;;;;;1999.90;999.90;;;0.70;99.90;;;;;;5046778;28;20048;-67
2022/12/11 07:54:21;;;;;;;1999.90;999.90;;;0.70;99.90;;;;;;5044498;28;20123;-67
2022/12/11 07:56:47;;;;;;;1999.90;999.90;;;0.70;99.90;;;;;;5028568;28;20189;-67
2022/12/11 07:59:15;;;;;;;1999.90;999.90;;;0.70;99.90;;;;;;5062878;28;20478;-67
2022/12/11 08:01:42;;;;;;;1999.90;999.90;;;0.70;99.90;;;;;;5043287;28;20400;-67
2022/12/11 08:04:10;;;;;;;1999.90;999.90;;;0.70;99.90;;;;;;5043605;28;20056;-67
2022/12/11 08:06:38;;;;;;;1999.90;999.90;;;0.70;99.90;;;;;;5043404;28;20037;-67
2022/12/11 08:09:06;;;;;;;1999.90;999.90;;;0.70;99.90;;;;;;5074409;28;20052;-67
2022/12/11 08:11:33;;;;;;;1999.90;999.90;;;0.70;99.90;;;;;;5030369;28;20473;-67
2022/12/11 08:13:59;;;;;;;1999.90;999.90;;;0.70;99.90;;;;;;5042998;28;20041;-67
2022/12/11 08:16:25;;;;;;;1999.90;999.90;;;0.70;99.90;;;;;;5041685;28;20037;-67
2022/12/11 08:18:51;;;;;;;1999.90;999.90;;;0.70;99.90;;;;;;5042685;28;20059;-67
2022/12/11 08:21:22;;;;;;;1999.90;999.90;;;0.70;99.90;;;;;;5044227;28;20278;-67
2022/12/11 08:23:49;;;;;;;1999.90;999.90;;;0.70;99.90;;;;;;5027312;28;20052;-67
2022/12/11 08:26:20;;;;;;;1999.90;999.90;;;0.70;99.90;;;;;;5041542;28;20080;-67
2022/12/11 08:28:46;;;;;;;1999.90;999.90;;;0.80;99.90;;;;;;5026615;28;20032;-67
2022/12/11 08:31:13;;;;;;;1999.90;999.90;;;0.80;99.90;;;;;;5026148;28;20051;-67
2022/12/11 08:33:40;;;;;;;1999.90;999.90;;;0.70;99.90;;;;;;5029033;28;20049;-67
2022/12/11 08:36:08;;;;;;;1999.90;999.90;;;0.80;99.90;;;;;;5045801;28;20167;-67
2022/12/11 08:38:35;;;;;;;1999.90;999.90;;;0.80;99.90;;;;;;5041529;28;20415;-67
2022/12/11 08:41:15;;;;;;;1999.90;999.90;;;0.70;99.90;;;;;;5045667;28;20441;-67
2022/12/11 08:43:41;;;;;;;1999.90;999.90;;;0.80;99.90;;;;;;5041761;28;20047;-67
2022/12/11 08:46:07;;;;;;;1999.90;999.90;;;0.80;99.90;;;;;;5043161;28;20110;-67
2022/12/11 08:48:35;;;;;;;1999.90;999.90;;;0.80;99.90;;;;;;5039750;28;20044;-67
2022/12/11 08:51:03;;;;;;;1999.90;999.90;;;0.80;99.90;;;;;;5023859;28;20037;-67
2022/12/11 08:53:30;;;;;;;1999.90;999.90;;;0.70;99.90;;;;;;5027075;28;20490;-67
2022/12/11 08:56:03;;;;;;;1999.90;999.90;;;0.80;99.90;;;;;;5026113;28;20072;-67
2022/12/11 08:58:29;;;;;;;1999.90;999.90;;;0.80;99.90;;;;;;5041234;28;20486;-67
2022/12/11 09:00:55;;;;;;;1999.90;999.90;;;0.80;99.90;;;;;;5038386;28;20044;-67
2022/12/11 09:03:21;;;;;;;1999.90;999.90;;;0.80;99.90;;;;;;5038150;28;20490;-67
2022/12/11 09:05:46;;;;;;;1999.90;999.90;;;0.80;99.90;;;;;;5063551;28;20032;-67
2022/12/11 09:08:12;;;;;;;1999.90;999.90;;;0.80;99.90;;;;;;5043845;28;20102;-67
2022/12/11 09:10:37;;;;;;;1999.90;999.90;;;0.80;99.90;;;;;;5027344;28;20855;-67
2022/12/11 09:13:03;;;;;;;1999.90;999.90;;;0.80;99.90;;;;;;5041186;28;20179;-67
2022/12/11 09:15:29;;;;;;;1999.90;999.90;;;0.80;99.90;;;;;;5043247;28;20126;-67
2022/12/11 09:17:54;;;;;;;1999.90;999.90;;;0.80;99.90;;;;;;5023810;28;20550;-67
2022/12/11 09:20:20;;;;;;;1999.90;999.90;;;0.80;99.90;;;;;;5025348;28;20044;-67
2022/12/11 09:22:46;;;;;;;1999.90;999.90;;;0.80;99.90;;;;;;5045477;28;20037;-67
2022/12/11 09:25:11;;;;;;;1999.90;999.90;;;0.80;99.90;;;;;;5042827;28;20067;-67
2022/12/11 09:27:37;;;;;;;1999.90;999.90;;;0.80;99.90;;;;;;5041023;28;20041;-67
2022/12/11 09:30:03;;;;;;;1999.90;999.90;;;0.80;99.90;;;;;;5029297;28;20055;-67
2022/12/11 09:32:29;;;;;;;1999.90;999.90;;;0.90;99.90;;;;;;5041064;28;20151;-67
2022/12/11 09:34:54;;;;;;;1999.90;999.90;;;0.90;99.90;;;;;;5043818;28;20127;-67
2022/12/11 09:37:20;;;;;;;1999.90;999.90;;;0.90;99.90;;;;;;5043370;28;20037;-67
2022/12/11 09:39:46;;;;;;;1999.90;999.90;;;0.90;99.90;;;;;;5046254;28;20226;-67
2022/12/11 09:42:26;;;;;;;1999.90;999.90;;;0.90;99.90;;;;;;5027767;28;20142;-67
2022/12/11 09:44:55;;;;;;;1999.90;999.90;;;0.90;99.90;;;;;;5027943;28;20037;-67
2022/12/11 09:47:27;;;;;;;1999.90;999.90;;;0.90;99.90;;;;;;5046333;28;20478;-67
2022/12/11 09:50:24;;;;;;;1999.90;999.90;;;0.90;99.90;;;;;;5071746;28;20094;-67
2022/12/11 09:53:09;;;;;;;1999.90;999.90;;;0.90;99.90;;;;;;5035520;28;20052;-67
2022/12/11 09:56:02;;;;;;;1999.90;999.90;;;0.90;99.90;;;;;;5025017;28;20473;-67
2022/12/11 09:58:57;;;;;;;1999.90;999.90;;;0.90;99.90;;;;;;5044944;28;20036;-67
2022/12/11 10:01:42;;;;;;;1999.90;999.90;;;0.90;99.90;;;;;;5030390;28;20048;-67
2022/12/11 10:04:35;;;;;;;1999.90;999.90;;;0.90;99.90;;;;;;5028465;28;20048;-67
2022/12/11 10:07:10;;;;;;;1999.90;999.90;;;0.90;99.90;;;;;;5035438;28;20079;-67
2022/12/11 10:09:39;;;;;;;1999.90;999.90;;;1.00;99.90;;;;;;5032831;28;20394;-67
2022/12/11 10:12:07;;;;;;;1999.90;999.90;;;0.90;99.90;;;;;;5047804;28;20159;-67
2022/12/11 10:15:09;;;;;;;1999.90;999.90;;;0.90;99.90;;;;;;5032718;28;20067;-67
2022/12/11 10:17:37;;;;;;;1999.90;999.90;;;1.00;99.90;;;;;;5080382;28;20580;-67
2022/12/11 10:20:30;;;;;;;1999.90;999.90;;;1.00;99.90;;;;;;5046851;28;20127;-67
2022/12/11 10:22:57;;;;;;;1999.90;999.90;;;1.00;99.90;;;;;;5049137;28;20037;-67
2022/12/11 10:25:30;;;;;;;1999.90;999.90;;;1.00;99.90;;;;;;5046261;28;20044;-67
2022/12/11 10:27:56;;;;;;;1999.90;999.90;;;1.00;99.90;;;;;;5032246;28;20032;-67
2022/12/11 10:30:31;;;;;;;1999.90;999.90;;;1.00;99.90;;;;;;5031091;28;20068;-67
2022/12/11 10:33:13;;;;;;;1999.90;999.90;;;1.10;99.90;;;;;;5029790;28;20174;-67
2022/12/11 10:35:52;;;;;;;1999.90;999.90;;;1.10;99.90;;;;;;5066333;28;20040;-67
2022/12/11 10:38:27;;;;;;;1999.90;999.90;;;1.10;99.90;;;;;;5047601;28;20147;-67
2022/12/11 10:40:57;;;;;;;1999.90;999.90;;;1.10;99.90;;;;;;5047328;28;20039;-67
2022/12/11 10:43:33;;;;;;;1999.90;999.90;;;1.20;99.90;;;;;;5080218;28;20139;-67
2022/12/11 10:45:59;;;;;;;1999.90;999.90;;;1.20;99.90;;;;;;5032933;28;20123;-67
2022/12/11 10:48:24;;;;;;;1999.90;999.90;;;1.20;99.90;;;;;;5045054;28;20577;-67
2022/12/11 10:51:03;;;;;;;1999.90;999.90;;;1.20;99.90;;;;;;5079714;28;20040;-67
2022/12/11 10:53:30;;;;;;;1999.90;999.90;;;1.20;99.90;;;;;;5049329;28;20581;-67
2022/12/11 10:55:58;;;;;;;1999.90;999.90;;;1.20;99.90;;;;;;5048447;28;20127;-67
2022/12/11 10:58:30;;;;;;;1999.90;999.90;;;1.20;99.90;;;;;;5050130;28;20040;-67
2022/12/11 11:01:13;;;;;;;1999.90;999.90;;;1.30;99.90;;;;;;5045536;28;20050;-67
2022/12/11 11:03:57;;;;;;;;;;;1.30;99.90;;;;;;5039731;28;20056;-67
2022/12/11 11:06:24;;;;;;;1999.90;999.90;;;1.30;99.90;;;;;;5040605;28;19995;-67
2022/12/11 11:08:59;;;;;;;1999.90;999.90;;;1.30;99.90;;;;;;5038407;28;20040;-67
2022/12/11 11:11:31;;;;;;;1999.90;999.90;;;1.40;99.90;;;;;;5030083;28;20485;-67
2022/12/11 11:14:17;;;;;;;1999.90;999.90;;;1.40;99.90;;;;;;5018034;28;20053;-67
2022/12/11 11:16:45;;;;;;;1999.90;999.90;;;1.40;99.90;;;;;;5045411;28;20040;-67
2022/12/11 11:19:22;;;;;;;1999.90;999.90;;;1.40;99.90;;;;;;5026757;28;20102;-67
2022/12/11 11:21:55;;;;;;;1999.90;999.90;;;1.40;99.90;;;;;;5028523;28;20451;-67
2022/12/11 11:24:34;;;;;;;1999.90;999.90;;;1.50;99.90;;;;;;5047238;28;20071;-67
2022/12/11 11:26:59;;;;;;;1999.90;999.90;;;1.40;99.90;;;;;;5038012;28;20122;-67
2022/12/11 11:29:30;;;;;;;1999.90;999.90;;;1.50;99.90;;;;;;5046057;28;20048;-67
2022/12/11 11:32:14;;;;;;;1999.90;999.90;;;1.50;99.90;;;;;;5044333;28;20059;-67
2022/12/11 11:34:39;;;;;;;1999.90;999.90;;;1.50;99.90;;;;;;5043474;28;20044;-67
2022/12/11 11:37:21;;;;;;;1999.90;999.90;;;1.50;99.90;;;;;;5036592;28;20094;-67
2022/12/11 11:39:49;;;;;;;1999.90;999.90;;;1.50;99.90;;;;;;5023142;28;20434;-67
2022/12/11 11:42:26;;;;;;;1999.90;999.90;;;1.50;99.90;;;;;;5025300;28;20080;-67
2022/12/11 11:45:04;;;;;;;1999.90;999.90;;;1.60;99.90;;;;;;5018942;28;20041;-67
2022/12/11 11:47:35;;;;;;;1999.90;999.90;;;1.60;99.90;;;;;;5014674;28;20574;-67
2022/12/11 11:50:24;;;;;;;1999.90;999.90;;;1.60;99.90;;;;;;5043792;28;20040;-67
2022/12/11 11:53:02;;;;;;;1999.90;999.90;;;1.60;99.90;;;;;;5045644;28;20059;-67
2022/12/11 11:56:05;;;;;;;1999.90;999.90;;;1.60;99.90;;;;;;5021366;28;20045;-66
2022/12/11 11:58:42;;;;;;;1999.90;999.90;;;1.60;99.90;;;;;;5021221;28;20127;-67
2022/12/11 12:01:16;;;;;;;1999.90;999.90;;;1.70;99.90;;;;;;5034561;28;20080;-67
2022/12/11 12:03:43;;;;;;;1999.90;999.90;;;1.70;99.90;;;;;;5028500;28;20053;-67
2022/12/11 12:06:26;;;;;;;1999.90;999.90;;;1.70;99.90;;;;;;5027851;28;20164;-67
2022/12/11 12:09:19;;;;;;;1999.90;999.90;;;1.80;99.90;;;;;;5040543;28;20041;-67
2022/12/11 12:12:02;;;;;;;1999.90;999.90;;;1.80;99.90;;;;;;5038429;28;20435;-67
2022/12/11 12:14:34;;;;;;;1999.90;999.90;;;1.80;99.90;;;;;;5039913;28;20040;-67
2022/12/11 12:17:05;;;;;;;1999.90;999.90;;;1.80;99.90;;;;;;5045544;28;20046;-67
2022/12/11 12:19:42;;;;;;;1999.90;999.90;;;1.80;99.90;;;;;;5045422;28;20075;-67
2022/12/11 12:22:26;;;;;;;1999.90;999.90;;;1.80;99.90;;;;;;5043388;28;20054;-67
2022/12/11 12:25:05;;;;;;;1999.90;999.90;;;1.80;99.90;;;;;;5041927;28;20236;-67
2022/12/11 12:27:31;;;;;;;1999.90;999.90;;;1.70;99.90;;;;;;5026430;28;20040;-67
2022/12/11 12:30:17;;;;;;;1999.90;999.90;;;1.70;99.90;;;;;;5028773;28;20422;-67